Time;durP1;ratioP1;P1;durP2;ratioP2;P2;SDS_P1;SDS_P2;PMS_P1;PMS_P2;Temp;Humidity;BMP_temperature;BMP_pressure;BME280_temperature;BME280_humidity;BME280_pressure;Samples;Min_cycle;Max_cycle;Signal;HPM_P1;HPM_P2
2021/08/28 00:02:05;;;;;;;;;;;13.00;99.90;;;;;;8330565;28;19968;-66
2021/08/28 00:06:05;;;;;;;;;;;13.00;99.90;;;;;;8330086;28;19974;-65
2021/08/28 00:10:06;;;;;;;;;;;13.10;99.90;;;;;;8330175;28;19909;-66
2021/08/28 00:14:07;;;;;;;;;;;12.90;99.90;;;;;;8312116;28;19972;-66
2021/08/28 00:18:07;;;;;;;;;;;12.80;99.90;;;;;;8328925;28;19909;-65
2021/08/28 00:22:08;;;;;;;;;;;12.80;99.90;;;;;;8330047;28;19948;-65
2021/08/28 00:26:08;;;;;;;;;;;12.80;99.90;;;;;;8329719;28;19920;-66
2021/08/28 00:30:09;;;;;;;;;;;12.80;99.90;;;;;;8328536;28;19917;-66
2021/08/28 00:34:10;;;;;;;;;;;12.70;99.90;;;;;;8329510;28;19909;-65
2021/08/28 00:38:11;;;;;;;;;;;12.80;99.90;;;;;;8329441;28;19949;-65
2021/08/28 00:42:11;;;;;;;;;;;12.80;99.90;;;;;;8329352;28;19909;-65
2021/08/28 00:46:12;;;;;;;;;;;12.90;99.90;;;;;;8329050;28;19979;-65
2021/08/28 00:50:12;;;;;;;;;;;12.80;99.90;;;;;;8329071;28;19916;-65
2021/08/28 00:54:12;;;;;;;;;;;12.90;99.90;;;;;;8329166;28;19909;-65
2021/08/28 00:58:13;;;;;;;;;;;12.90;99.90;;;;;;8328582;28;19909;-65
2021/08/28 01:02:14;;;;;;;;;;;12.90;99.90;;;;;;8328813;28;19916;-65
2021/08/28 01:06:32;;;;;;;;;;;12.90;99.90;;;;;;8328584;28;19966;-66
2021/08/28 01:10:38;;;;;;;;;;;12.80;99.90;;;;;;8310801;28;19936;-66
2021/08/28 01:14:41;;;;;;;;;;;12.60;99.90;;;;;;8328220;28;20432;-66
2021/08/28 01:18:43;;;;;;;;;;;12.70;99.90;;;;;;8328135;28;19955;-66
2021/08/28 01:22:45;;;;;;;;;;;12.70;99.90;;;;;;8328168;28;19959;-66
2021/08/28 01:26:59;;;;;;;;;;;12.70;99.90;;;;;;8309960;28;19955;-66
2021/08/28 01:31:00;;;;;;;;;;;12.70;99.90;;;;;;8327026;28;19924;-66
2021/08/28 01:35:01;;;;;;;;;;;12.80;99.90;;;;;;8327593;28;19913;-66
2021/08/28 01:39:02;;;;;;;;;;;12.70;99.90;;;;;;8327541;28;19959;-66
2021/08/28 01:43:02;;;;;;;;;;;12.80;99.90;;;;;;8327446;28;19935;-66
2021/08/28 01:47:05;;;;;;;;;;;12.70;99.90;;;;;;8327149;28;19921;-66
2021/08/28 01:51:06;;;;;;;;;;;12.70;99.90;;;;;;8327506;28;19960;-66
2021/08/28 01:55:06;;;;;;;;;;;12.70;99.90;;;;;;8309387;28;20381;-65
2021/08/28 01:59:07;;;;;;;;;;;12.60;99.90;;;;;;8327134;28;19921;-66
2021/08/28 02:03:07;;;;;;;;;;;12.70;99.90;;;;;;8326693;28;19913;-65
2021/08/28 02:07:18;;;;;;;;;;;12.80;99.90;;;;;;8326710;28;19924;-66
2021/08/28 02:11:23;;;;;;;;;;;12.70;99.90;;;;;;8327003;28;19976;-66
2021/08/28 02:15:30;;;;;;;;;;;12.80;99.90;;;;;;8326652;28;19936;-66
2021/08/28 02:19:31;;;;;;;;;;;12.70;99.90;;;;;;8327179;28;19909;-66
2021/08/28 02:23:35;;;;;;;;;;;12.50;99.90;;;;;;8326733;28;19944;-66
2021/08/28 02:27:55;;;;;;;;;;;12.40;99.90;;;;;;8326014;28;19913;-66
2021/08/28 02:31:58;;;;;;;;;;;12.40;99.90;;;;;;8325854;28;19913;-66
2021/08/28 02:35:59;;;;;;;;;;;12.30;99.90;;;;;;8325589;28;19920;-66
2021/08/28 02:40:01;;;;;;;;;;;12.30;99.90;;;;;;8326626;28;19909;-66
2021/08/28 02:44:03;;;;;;;;;;;12.30;99.90;;;;;;8326695;28;20340;-66
2021/08/28 02:48:04;;;;;;;;;;;12.50;99.90;;;;;;8326498;28;20373;-66
2021/08/28 02:52:06;;;;;;;;;;;12.50;99.90;;;;;;8326362;28;19941;-66
2021/08/28 02:56:07;;;;;;;;;;;12.50;99.90;;;;;;8326161;28;19917;-66
2021/08/28 03:00:08;;;;;;;;;;;12.50;99.90;;;;;;8326130;28;19968;-66
2021/08/28 03:04:09;;;;;;;;;;;12.40;99.90;;;;;;8326186;28;20348;-66
2021/08/28 03:08:11;;;;;;;;;;;12.40;99.90;;;;;;8325657;28;19940;-66
2021/08/28 03:12:11;;;;;;;;;;;12.40;99.90;;;;;;8325877;28;19913;-66
2021/08/28 03:16:12;;;;;;;;;;;12.30;99.90;;;;;;8330415;28;20014;-66
2021/08/28 03:20:15;;;;;;;;;;;12.30;99.90;;;;;;8332062;28;19915;-66
2021/08/28 03:24:17;;;;;;;;;;;12.40;99.90;;;;;;8331797;28;19916;-66
2021/08/28 03:28:17;;;;;;;;;;;12.40;99.90;;;;;;8330741;28;19917;-66
2021/08/28 03:32:18;;;;;;;;;;;12.30;99.90;;;;;;8331648;28;19909;-66
2021/08/28 03:36:19;;;;;;;;;;;12.30;99.90;;;;;;8331541;28;19909;-66
2021/08/28 03:40:20;;;;;;;;;;;12.30;99.90;;;;;;8331371;28;19916;-66
2021/08/28 03:44:20;;;;;;;;;;;12.30;99.90;;;;;;8331339;28;20400;-65
2021/08/28 03:48:21;;;;;;;;;;;12.50;99.90;;;;;;8330949;28;19920;-66
2021/08/28 03:52:22;;;;;;;;;;;12.40;99.90;;;;;;8313291;28;19916;-66
2021/08/28 03:56:22;;;;;;;;;;;12.40;99.90;;;;;;8330780;28;20313;-66
2021/08/28 04:00:22;;;;;;;;;;;12.30;99.90;;;;;;8330718;28;19909;-66
2021/08/28 04:04:23;;;;;;;;;;;12.30;99.90;;;;;;8330566;28;19909;-65
2021/08/28 04:08:23;;;;;;;;;;;12.50;99.90;;;;;;8330429;28;19913;-66
2021/08/28 04:12:24;;;;;;;;;;;12.40;99.90;;;;;;8330085;28;19909;-66
2021/08/28 04:16:24;;;;;;;;;;;12.40;99.90;;;;;;8324072;28;19948;-66
2021/08/28 04:20:25;;;;;;;;;;;12.50;99.90;;;;;;8329689;28;19910;-66
2021/08/28 04:24:25;;;;;;;;;;;12.50;99.90;;;;;;8329158;28;19913;-66
2021/08/28 04:28:26;;;;;;;;;;;12.40;99.90;;;;;;8329075;28;19917;-66
2021/08/28 04:32:26;;;;;;;;;;;12.50;99.90;;;;;;8312103;28;19916;-66
2021/08/28 04:36:27;;;;;;;;;;;12.50;99.90;;;;;;8311848;28;20045;-65
2021/08/28 04:40:27;;;;;;;;;;;12.30;99.90;;;;;;8329422;28;19913;-66
2021/08/28 04:44:28;;;;;;;;;;;12.30;99.90;;;;;;8329168;28;20012;-66
2021/08/28 04:48:31;;;;;;;;;;;12.50;99.90;;;;;;8328671;28;20350;-66
2021/08/28 04:52:31;;;;;;;;;;;12.50;99.90;;;;;;8311338;28;20063;-66
2021/08/28 04:56:32;;;;;;;;;;;12.30;99.90;;;;;;8328945;28;19913;-66
2021/08/28 05:00:32;;;;;;;;;;;12.30;99.90;;;;;;8328920;28;19949;-66
2021/08/28 05:04:33;;;;;;;;;;;12.10;99.90;;;;;;8328639;28;19909;-66
2021/08/28 05:08:33;;;;;;;;;;;12.10;99.90;;;;;;8328543;28;20345;-66
2021/08/28 05:12:34;;;;;;;;;;;12.00;99.90;;;;;;8328653;28;20004;-66
2021/08/28 05:16:34;;;;;;;;;;;12.00;99.90;;;;;;8310681;28;19909;-66
2021/08/28 05:20:35;;;;;;;;;;;12.00;99.90;;;;;;8328338;28;19913;-66
2021/08/28 05:24:37;;;;;;;;;;;12.30;99.90;;;;;;8310216;28;20375;-65
2021/08/28 05:28:37;;;;;;;;;;;12.40;99.90;;;;;;8309615;28;19921;-66
2021/08/28 05:32:38;;;;;;;;;;;12.50;99.90;;;;;;8310292;28;19956;-65
2021/08/28 05:36:38;;;;;;;;;;;12.80;99.90;;;;;;8309839;28;20368;-66
2021/08/28 05:40:39;;;;;;;;;;;12.80;99.90;;;;;;8310182;28;19909;-66
2021/08/28 05:44:39;;;;;;;;;;;12.90;99.90;;;;;;8327505;28;19960;-66
2021/08/28 05:48:40;;;;;;;;;;;13.00;99.90;;;;;;8326236;28;19924;-66
2021/08/28 05:52:40;;;;;;;;;;;13.10;99.90;;;;;;8327180;28;19913;-66
2021/08/28 05:56:41;;;;;;;;;;;13.10;99.90;;;;;;8327108;28;19909;-66
2021/08/28 06:00:41;;;;;;;;;;;13.10;99.90;;;;;;8326364;28;19913;-66
2021/08/28 06:04:42;;;;;;;;;;;13.40;99.90;;;;;;8325745;28;19967;-66
2021/08/28 06:08:43;;;;;;;;;;;13.30;99.90;;;;;;8325729;28;19932;-66
2021/08/28 06:12:43;;;;;;;;;;;13.40;99.90;;;;;;8326565;28;20070;-66
2021/08/28 06:16:44;;;;;;;;;;;13.50;99.90;;;;;;8325708;28;19914;-66
2021/08/28 06:20:44;;;;;;;;;;;13.50;99.90;;;;;;8327179;28;19943;-66
2021/08/28 06:24:45;;;;;;;;;;;13.40;99.90;;;;;;8326574;28;19948;-66
2021/08/28 06:28:46;;;;;;;;;;;13.40;99.90;;;;;;8308213;28;19923;-66
2021/08/28 06:32:47;;;;;;;;;;;13.40;99.90;;;;;;8326411;28;19913;-66
2021/08/28 06:36:47;;;;;;;;;;;13.40;99.90;;;;;;8325461;28;19917;-66
2021/08/28 06:40:48;;;;;;;;;;;13.50;99.90;;;;;;8325142;28;19967;-66
2021/08/28 06:44:48;;;;;;;;;;;13.60;99.90;;;;;;8323891;28;19917;-66
2021/08/28 06:48:49;;;;;;;;;;;13.40;99.90;;;;;;8324915;28;19924;-66
2021/08/28 06:52:49;;;;;;;;;;;13.50;99.90;;;;;;8330396;28;19933;-66
2021/08/28 06:56:50;;;;;;;;;;;13.60;99.90;;;;;;8329709;28;20385;-66
2021/08/28 07:00:50;;;;;;;;;;;13.70;99.90;;;;;;8331178;28;19909;-66
2021/08/28 07:04:51;;;;;;;;;;;13.70;99.90;;;;;;8328683;28;19913;-66
2021/08/28 07:08:51;;;;;;;;;;;13.80;99.90;;;;;;8328267;28;19921;-66
2021/08/28 07:12:52;;;;;;;;;;;13.90;99.90;;;;;;8330575;28;19913;-66
2021/08/28 07:16:52;;;;;;;;;;;14.00;99.90;;;;;;8329884;28;19917;-66
2021/08/28 07:20:53;;;;;;;;;;;14.30;99.90;;;;;;8330934;28;19944;-66
2021/08/28 07:24:53;;;;;;;;;;;14.60;99.90;;;;;;8331264;28;19920;-66
2021/08/28 07:28:54;;;;;;;;;;;15.00;99.90;;;;;;8331077;28;19933;-66
2021/08/28 07:32:56;;;;;;;;;;;15.50;99.90;;;;;;8331663;28;19963;-66
2021/08/28 07:36:56;;;;;;;;;;;15.90;99.90;;;;;;8313448;28;19921;-66
2021/08/28 07:40:57;;;;;;;;;;;16.10;99.90;;;;;;8330747;28;19918;-66
2021/08/28 07:44:57;;;;;;;;;;;15.90;99.90;;;;;;8330251;28;19948;-66
2021/08/28 07:48:58;;;;;;;;;;;15.50;99.90;;;;;;8326953;28;19917;-66
2021/08/28 07:52:58;;;;;;;;;;;15.30;99.90;;;;;;8330360;28;20289;-66
2021/08/28 07:56:59;;;;;;;;;;;14.90;99.90;;;;;;8330734;28;19909;-66
2021/08/28 08:01:00;;;;;;;;;;;15.00;99.90;;;;;;8328388;28;19920;-66
2021/08/28 08:05:01;;;;;;;;;;;15.30;99.90;;;;;;8329252;28;19909;-66
2021/08/28 08:09:03;;;;;;;;;;;15.50;99.90;;;;;;8330184;28;19916;-67
2021/08/28 08:13:03;;;;;;;;;;;16.20;99.90;;;;;;8330017;28;19913;-67
2021/08/28 08:17:03;;;;;;;;;;;16.80;99.90;;;;;;8329213;28;19978;-66
2021/08/28 08:21:04;;;;;;;;;;;16.20;99.90;;;;;;8329168;28;19999;-66
2021/08/28 08:25:05;;;;;;;;;;;15.70;99.90;;;;;;8328556;28;19913;-66
2021/08/28 08:29:05;;;;;;;;;;;15.40;99.90;;;;;;8328240;28;19943;-67
2021/08/28 08:33:06;;;;;;;;;;;15.50;99.90;;;;;;8327239;28;19913;-66
2021/08/28 08:37:06;;;;;;;;;;;15.80;99.90;;;;;;8310540;28;19909;-66
2021/08/28 08:41:07;;;;;;;;;;;15.70;99.90;;;;;;8328864;28;19955;-66
2021/08/28 08:45:08;;;;;;;;;;;16.10;99.90;;;;;;8310474;28;19913;-66
2021/08/28 08:49:09;;;;;;;;;;;16.60;99.90;;;;;;8328413;28;19910;-66
2021/08/28 08:53:11;;;;;;;;;;;16.90;99.90;;;;;;8328776;28;20397;-66
2021/08/28 08:57:11;;;;;;;;;;;17.30;99.90;;;;;;8328607;28;19913;-66
2021/08/28 09:01:12;;;;;;;;;;;16.90;99.90;;;;;;8311039;28;19916;-66
2021/08/28 09:05:13;;;;;;;;;;;16.50;99.90;;;;;;8310288;28;19913;-66
2021/08/28 09:09:13;;;;;;;;;;;16.80;99.90;;;;;;8327872;28;19913;-66
2021/08/28 09:13:15;;;;;;;;;;;17.70;99.90;;;;;;8327765;28;19914;-66
2021/08/28 09:17:17;;;;;;;;;;;17.30;99.90;;;;;;8327484;28;19909;-66
2021/08/28 09:21:21;;;;;;;;;;;16.70;99.90;;;;;;8326946;28;19917;-66
2021/08/28 09:25:22;;;;;;;;;;;16.30;99.90;;;;;;8308673;28;19927;-66
2021/08/28 09:29:23;;;;;;;;;;;15.70;99.90;;;;;;8370704;22;20557;-67
2021/08/28 09:33:30;;;;;;;;;;;15.30;99.90;;;;;;8391464;28;19920;-67
2021/08/28 09:37:30;;;;;;;;;;;15.10;99.90;;;;;;8372638;28;19923;-67
2021/08/28 09:41:32;;;;;;;;;;;14.70;99.90;;;;;;8389160;28;19917;-67
2021/08/28 09:45:34;;;;;;;;;;;14.40;99.90;;;;;;8380171;28;19920;-68
2021/08/28 09:49:34;;;;;;;;;;;14.50;99.90;;;;;;8360131;28;20017;-68
2021/08/28 09:53:37;;;;;;;;;;;15.10;99.90;;;;;;8342464;28;19909;-68
2021/08/28 09:57:38;;;;;;;;;;;15.60;99.90;;;;;;8342098;28;19919;-68
2021/08/28 10:01:45;;;;;;;;;;;16.00;99.90;;;;;;8341953;28;20419;-68
2021/08/28 10:05:45;;;;;;;;;;;15.90;99.90;;;;;;8359715;28;19917;-68
2021/08/28 10:09:46;;;;;;;;;;;15.80;99.90;;;;;;8359793;28;19959;-68
2021/08/28 10:13:47;;;;;;;;;;;15.40;99.90;;;;;;8344475;28;19913;-68
2021/08/28 10:17:48;;;;;;;;;;;15.30;99.90;;;;;;8348338;28;19959;-68
2021/08/28 10:21:49;;;;;;;;;;;15.00;99.90;;;;;;8388638;28;19913;-68
2021/08/28 10:25:50;;;;;;;;;;;14.90;99.90;;;;;;8370549;28;19971;-68
2021/08/28 10:29:50;;;;;;;;;;;15.10;99.90;;;;;;8373782;28;19917;-68
2021/08/28 10:33:51;;;;;;;;;;;15.50;99.90;;;;;;8364666;28;19919;-67
2021/08/28 10:37:51;;;;;;;;;;;16.10;99.90;;;;;;8374483;28;19923;-67
2021/08/28 10:41:52;;;;;;;;;;;16.30;99.90;;;;;;8376835;28;19912;-67
2021/08/28 10:45:53;;;;;;;;;;;16.50;99.90;;;;;;8387440;28;20019;-66
2021/08/28 10:49:57;;;;;;;;;;;16.60;99.90;;;;;;8386471;28;20423;-67
2021/08/28 10:54:01;;;;;;;;;;;16.60;99.90;;;;;;8392339;28;19913;-67
2021/08/28 10:58:16;;;;;;;;;;;17.30;99.90;;;;;;8391093;28;20384;-67
2021/08/28 11:02:16;;;;;;;;;;;17.50;99.90;;;;;;8392271;28;19919;-67
2021/08/28 11:06:17;;;;;;;;;;;17.80;99.90;;;;;;8391594;28;20363;-67
2021/08/28 11:10:27;;;;;;;;;;;18.60;99.90;;;;;;8373222;28;19979;-67
2021/08/28 11:14:44;;;;;;;;;;;19.90;99.90;;;;;;8358413;28;19919;-66
2021/08/28 11:18:44;;;;;;;;;;;20.10;99.90;;;;;;8367212;28;19913;-66
2021/08/28 11:22:45;;;;;;;;;;;19.60;99.90;;;;;;8369803;28;19913;-66
2021/08/28 11:26:49;;;;;;;;;;;18.90;99.90;;;;;;8358631;28;19917;-66
2021/08/28 11:30:50;;;;;;;;;;;18.70;99.90;;;;;;8358487;28;19917;-66
2021/08/28 11:34:58;;;;;;;;;;;18.40;99.90;;;;;;8360508;28;19921;-66
2021/08/28 11:38:58;;;;;;;;;;;18.00;99.90;;;;;;8368299;28;20058;-67
2021/08/28 11:42:59;;;;;;;;;;;18.00;99.90;;;;;;8380302;28;19912;-67
2021/08/28 11:46:59;;;;;;;;;;;17.90;99.90;;;;;;8368933;28;19963;-67
2021/08/28 11:51:00;;;;;;;;;;;18.10;99.90;;;;;;8392328;28;19959;-67
2021/08/28 11:55:01;;;;;;;;;;;18.10;99.90;;;;;;8366000;28;19913;-67
2021/08/28 11:59:06;;;;;;;;;;;17.70;99.90;;;;;;8364985;28;19923;-66
2021/08/28 12:03:07;;;;;;;;;;;15.10;99.90;;;;;;8377407;28;19908;-65
2021/08/28 12:07:08;;;;;;;;;;;13.90;99.90;;;;;;8369209;28;19924;-66
2021/08/28 12:11:09;;;;;;;;;;;13.70;99.90;;;;;;8351844;28;19908;-66
2021/08/28 12:15:09;;;;;;;;;;;14.10;99.90;;;;;;8368500;28;19909;-66
2021/08/28 12:19:14;;;;;;;;;;;14.10;99.90;;;;;;8361397;28;19915;-67
2021/08/28 12:23:15;;;;;;;;;;;14.50;99.90;;;;;;8361380;28;19909;-67
2021/08/28 12:27:16;;;;;;;;;;;14.80;99.90;;;;;;8368615;28;19916;-67
2021/08/28 12:31:16;;;;;;;;;;;14.70;99.90;;;;;;8386670;28;20352;-66
2021/08/28 12:35:17;;;;;;;;;;;14.10;99.90;;;;;;8365930;28;19909;-66
2021/08/28 12:39:17;;;;;;;;;;;14.10;99.90;;;;;;8351571;28;20395;-67
2021/08/28 12:43:18;;;;;;;;;;;14.00;99.90;;;;;;8356884;28;20377;-67
2021/08/28 12:47:21;;;;;;;;;;;14.10;99.90;;;;;;8370226;28;19960;-67
2021/08/28 12:51:21;;;;;;;;;;;14.00;99.90;;;;;;8367689;28;19967;-67
2021/08/28 12:55:24;;;;;;;;;;;14.30;99.90;;;;;;8376576;28;20301;-66
2021/08/28 12:59:24;;;;;;;;;;;14.30;99.90;;;;;;8376370;28;19908;-66
2021/08/28 13:03:26;;;;;;;;;;;14.30;99.90;;;;;;8362007;28;20292;-67
2021/08/28 13:07:29;;;;;;;;;;;14.50;99.90;;;;;;8369969;28;19939;-67
2021/08/28 13:11:30;;;;;;;;;;;14.80;99.90;;;;;;8369188;28;19963;-67
2021/08/28 13:15:30;;;;;;;;;;;15.80;99.90;;;;;;8350109;28;20281;-66
2021/08/28 13:19:32;;;;;;;;;;;16.80;99.90;;;;;;8359542;28;19919;-67
2021/08/28 13:23:32;;;;;;;;;;;16.80;99.90;;;;;;8360691;28;19952;-67
2021/08/28 13:27:39;;;;;;;;;;;17.30;99.90;;;;;;8374106;28;19916;-67
2021/08/28 13:31:40;;;;;;;;;;;17.70;99.90;;;;;;8383526;28;19921;-67
2021/08/28 13:35:40;;;;;;;;;;;18.50;99.90;;;;;;8374331;28;19941;-68
2021/08/28 13:39:42;;;;;;;;;;;19.10;99.90;;;;;;8356907;28;19913;-67
2021/08/28 13:43:43;;;;;;;;;;;19.40;99.90;;;;;;8359923;28;19958;-67
2021/08/28 13:47:44;;;;;;;;;;;19.10;99.90;;;;;;8375799;28;20683;-67
2021/08/28 13:51:45;;;;;;;;;;;20.40;99.90;;;;;;8387543;28;19966;-67
2021/08/28 13:55:45;;;;;;;;;;;20.10;99.90;;;;;;8369479;28;19909;-67
2021/08/28 13:59:46;;;;;;;;;;;19.80;99.90;;;;;;8371618;28;19917;-67
2021/08/28 14:03:46;;;;;;;;;;;21.00;99.90;;;;;;8372513;28;19970;-67
2021/08/28 14:07:47;;;;;;;;;;;22.70;99.90;;;;;;8372198;28;19930;-67
2021/08/28 14:11:47;;;;;;;;;;;23.30;99.90;;;;;;8372275;28;19913;-67
2021/08/28 14:15:48;;;;;;;;;;;23.50;99.90;;;;;;8352352;28;19913;-67
2021/08/28 14:19:48;;;;;;;;;;;21.90;99.90;;;;;;8374762;28;19912;-67
2021/08/28 14:23:51;;;;;;;;;;;20.60;99.90;;;;;;8393063;28;19916;-67
2021/08/28 14:27:51;;;;;;;;;;;19.30;99.90;;;;;;8374528;28;19935;-67
2021/08/28 14:31:52;;;;;;;;;;;18.60;99.90;;;;;;8393109;28;20083;-67
2021/08/28 14:35:53;;;;;;;;;;;17.90;99.90;;;;;;8391489;28;19912;-67
2021/08/28 14:39:55;;;;;;;;;;;17.50;99.90;;;;;;8379646;28;21783;-66
2021/08/28 14:43:56;;;;;;;;;;;16.90;99.90;;;;;;8353892;28;19908;-67
2021/08/28 14:47:56;;;;;;;;;;;16.50;99.90;;;;;;8387235;28;19923;-66
2021/08/28 14:51:57;;;;;;;;;;;16.00;99.90;;;;;;8392779;28;19916;-66
2021/08/28 14:55:57;;;;;;;;;;;15.60;99.90;;;;;;8373174;28;19916;-66
2021/08/28 14:59:58;;;;;;;;;;;15.10;99.90;;;;;;8392278;28;19916;-66
2021/08/28 15:03:58;;;;;;;;;;;14.90;99.90;;;;;;8392227;28;19966;-66
2021/08/28 15:07:59;;;;;;;;;;;14.70;99.90;;;;;;8391599;28;20035;-66
2021/08/28 15:11:59;;;;;;;;;;;14.60;99.90;;;;;;8398293;28;19908;-66
2021/08/28 15:16:00;;;;;;;;;;;14.60;99.90;;;;;;8393946;28;19935;-67
2021/08/28 15:20:01;;;;;;;;;;;14.60;99.90;;;;;;8346623;28;19954;-67
2021/08/28 15:24:01;;;;;;;;;;;14.50;99.90;;;;;;8368128;28;19916;-67
2021/08/28 15:28:02;;;;;;;;;;;14.50;99.90;;;;;;8363425;28;19930;-67
2021/08/28 15:32:03;;;;;;;;;;;14.40;99.90;;;;;;8413803;23;19931;-66
2021/08/28 15:36:04;;;;;;;;;;;14.30;99.90;;;;;;8395971;28;19908;-66
2021/08/28 15:40:05;;;;;;;;;;;14.20;99.90;;;;;;8396471;28;19912;-66
2021/08/28 15:44:05;;;;;;;;;;;14.10;99.90;;;;;;8383688;28;19912;-66
2021/08/28 15:48:06;;;;;;;;;;;14.10;99.90;;;;;;8369887;28;19990;-66
2021/08/28 15:52:07;;;;;;;;;;;13.90;99.90;;;;;;8376464;28;19913;-66
2021/08/28 15:56:08;;;;;;;;;;;13.90;99.90;;;;;;8381174;28;19912;-66
2021/08/28 16:00:09;;;;;;;;;;;13.80;99.90;;;;;;8381622;28;19916;-66
2021/08/28 16:04:09;;;;;;;;;;;13.90;99.90;;;;;;8385014;28;19913;-66
2021/08/28 16:08:10;;;;;;;;;;;13.90;99.90;;;;;;8390383;28;19950;-66
2021/08/28 16:12:11;;;;;;;;;;;13.90;99.90;;;;;;8370823;28;20002;-66
2021/08/28 16:16:12;;;;;;;;;;;13.90;99.90;;;;;;8380315;28;19956;-66
2021/08/28 16:20:14;;;;;;;;;;;13.90;99.90;;;;;;8355489;28;19948;-66
2021/08/28 16:24:14;;;;;;;;;;;13.80;99.90;;;;;;8392877;28;19978;-66
2021/08/28 16:28:15;;;;;;;;;;;13.80;99.90;;;;;;8359888;28;19970;-66
2021/08/28 16:32:15;;;;;;;;;;;13.90;99.90;;;;;;8341117;28;19924;-67
2021/08/28 16:36:16;;;;;;;;;;;13.90;99.90;;;;;;8359945;28;19909;-67
2021/08/28 16:40:16;;;;;;;;;;;13.90;99.90;;;;;;8387451;28;19985;-66
2021/08/28 16:44:17;;;;;;;;;;;13.90;99.90;;;;;;8367433;28;20596;-67
2021/08/28 16:48:17;;;;;;;;;;;14.00;99.90;;;;;;8366305;28;19916;-66
2021/08/28 16:52:18;;;;;;;;;;;14.00;99.90;;;;;;8369713;28;19909;-67
2021/08/28 16:56:18;;;;;;;;;;;14.00;99.90;;;;;;8352868;28;19916;-66
2021/08/28 17:00:19;;;;;;;;;;;14.00;99.90;;;;;;8377793;28;19916;-66
2021/08/28 17:04:20;;;;;;;;;;;14.10;99.90;;;;;;8380320;28;19912;-67
2021/08/28 17:08:20;;;;;;;;;;;14.00;99.90;;;;;;8366518;28;20297;-67
2021/08/28 17:12:21;;;;;;;;;;;13.90;99.90;;;;;;8368068;28;19967;-67
2021/08/28 17:16:22;;;;;;;;;;;13.90;99.90;;;;;;8371898;28;20391;-66
2021/08/28 17:20:22;;;;;;;;;;;14.10;99.90;;;;;;8377399;28;19920;-67
2021/08/28 17:24:23;;;;;;;;;;;14.00;99.90;;;;;;8375849;28;19913;-66
2021/08/28 17:28:23;;;;;;;;;;;14.00;99.90;;;;;;8377039;28;20380;-66
2021/08/28 17:32:24;;;;;;;;;;;14.00;99.90;;;;;;8374705;28;19923;-66
2021/08/28 17:36:24;;;;;;;;;;;14.10;99.90;;;;;;8375264;28;19971;-66
2021/08/28 17:40:25;;;;;;;;;;;13.90;99.90;;;;;;8376606;28;19908;-66
2021/08/28 17:44:25;;;;;;;;;;;14.00;99.90;;;;;;8361981;28;20323;-67
2021/08/28 17:48:26;;;;;;;;;;;14.10;99.90;;;;;;8366357;28;20415;-67
2021/08/28 17:52:26;;;;;;;;;;;14.20;99.90;;;;;;8388342;28;19913;-66
2021/08/28 17:56:28;;;;;;;;;;;14.10;99.90;;;;;;8358154;28;19936;-66
2021/08/28 18:00:29;;;;;;;;;;;13.90;99.90;;;;;;8376180;28;19908;-66
2021/08/28 18:04:29;;;;;;;;;;;13.90;99.90;;;;;;8358518;28;19912;-66
2021/08/28 18:08:30;;;;;;;;;;;13.90;99.90;;;;;;8365689;28;19923;-66
2021/08/28 18:12:30;;;;;;;;;;;13.50;99.90;;;;;;8375693;28;19996;-66
2021/08/28 18:16:31;;;;;;;;;;;13.30;99.90;;;;;;8370724;28;19920;-67
2021/08/28 18:20:31;;;;;;;;;;;13.20;99.90;;;;;;8362287;28;19924;-66
2021/08/28 18:24:33;;;;;;;;;;;13.30;99.90;;;;;;8339388;28;19920;-67
2021/08/28 18:28:34;;;;;;;;;;;13.20;99.90;;;;;;8359049;28;19920;-66
2021/08/28 18:32:35;;;;;;;;;;;13.20;99.90;;;;;;8359318;28;20388;-67
2021/08/28 18:36:36;;;;;;;;;;;13.10;99.90;;;;;;8358839;28;19916;-66
2021/08/28 18:40:37;;;;;;;;;;;13.10;99.90;;;;;;8341626;28;19959;-66
2021/08/28 18:44:37;;;;;;;;;;;12.90;99.90;;;;;;8361291;28;20395;-66
2021/08/28 18:48:38;;;;;;;;;;;12.90;99.90;;;;;;8392592;28;20350;-66
2021/08/28 18:52:38;;;;;;;;;;;13.20;99.90;;;;;;8365163;28;19908;-66
2021/08/28 18:56:39;;;;;;;;;;;13.10;99.90;;;;;;8348569;28;19909;-66
2021/08/28 19:00:39;;;;;;;;;;;13.00;99.90;;;;;;8365911;28;19908;-66
2021/08/28 19:04:39;;;;;;;;;;;12.80;99.90;;;;;;8362638;28;19909;-66
2021/08/28 19:08:40;;;;;;;;;;;12.70;99.90;;;;;;8362858;28;19912;-65
2021/08/28 19:12:40;;;;;;;;;;;12.50;99.90;;;;;;8363096;28;20018;-65
2021/08/28 19:16:41;;;;;;;;;;;12.30;99.90;;;;;;8372343;28;19913;-65
2021/08/28 19:20:41;;;;;;;;;;;12.10;99.90;;;;;;8398348;28;19908;-65
2021/08/28 19:24:42;;;;;;;;;;;12.00;99.90;;;;;;8397690;28;19909;-66
2021/08/28 19:28:42;;;;;;;;;;;11.90;99.90;;;;;;8397838;28;19919;-66
2021/08/28 19:32:43;;;;;;;;;;;11.80;99.90;;;;;;8398212;28;19912;-65
2021/08/28 19:36:43;;;;;;;;;;;11.60;99.90;;;;;;8397194;28;19908;-65
2021/08/28 19:40:43;;;;;;;;;;;11.50;99.90;;;;;;8397640;28;19909;-65
2021/08/28 19:44:46;;;;;;;;;;;11.50;99.90;;;;;;8397454;28;19909;-65
2021/08/28 19:48:46;;;;;;;;;;;11.40;99.90;;;;;;8353317;28;19920;-65
2021/08/28 19:52:47;;;;;;;;;;;11.40;99.90;;;;;;8393939;28;19936;-65
2021/08/28 19:56:47;;;;;;;;;;;11.40;99.90;;;;;;8367699;28;19909;-65
2021/08/28 20:00:48;;;;;;;;;;;11.40;99.90;;;;;;8389176;28;20086;-65
2021/08/28 20:04:48;;;;;;;;;;;11.50;99.90;;;;;;8363547;28;19916;-65
2021/08/28 20:08:49;;;;;;;;;;;11.40;99.90;;;;;;8363891;28;19995;-65
2021/08/28 20:12:49;;;;;;;;;;;11.40;99.90;;;;;;8362506;28;19913;-65
2021/08/28 20:16:49;;;;;;;;;;;11.40;99.90;;;;;;8384268;28;19954;-66
2021/08/28 20:20:50;;;;;;;;;;;11.40;99.90;;;;;;8363564;28;19948;-66
2021/08/28 20:24:50;;;;;;;;;;;11.30;99.90;;;;;;8362710;28;20323;-65
2021/08/28 20:28:51;;;;;;;;;;;11.30;99.90;;;;;;8363026;28;19925;-65
2021/08/28 20:32:51;;;;;;;;;;;11.30;99.90;;;;;;8363468;28;20457;-65
2021/08/28 20:36:52;;;;;;;;;;;11.30;99.90;;;;;;8362813;28;19935;-66
2021/08/28 20:40:52;;;;;;;;;;;11.30;99.90;;;;;;8363244;28;19908;-66
2021/08/28 20:44:53;;;;;;;;;;;11.30;99.90;;;;;;8363000;28;19955;-65
2021/08/28 20:48:53;;;;;;;;;;;11.40;99.90;;;;;;8362817;28;19912;-66
2021/08/28 20:52:55;;;;;;;;;;;11.50;99.90;;;;;;8362990;28;19916;-66
2021/08/28 20:56:56;;;;;;;;;;;11.60;99.90;;;;;;8344376;28;19908;-65
2021/08/28 21:00:56;;;;;;;;;;;11.40;99.90;;;;;;8362188;28;20324;-65
2021/08/28 21:04:57;;;;;;;;;;;11.40;99.90;;;;;;8362234;28;20308;-66
2021/08/28 21:08:57;;;;;;;;;;;11.40;99.90;;;;;;8361868;28;19952;-65
2021/08/28 21:12:58;;;;;;;;;;;11.30;99.90;;;;;;8362212;28;19913;-65
2021/08/28 21:16:58;;;;;;;;;;;11.30;99.90;;;;;;8372929;28;19920;-65
2021/08/28 21:20:58;;;;;;;;;;;11.30;99.90;;;;;;8394688;28;19908;-65
2021/08/28 21:24:59;;;;;;;;;;;11.30;99.90;;;;;;8393980;28;19915;-65
2021/08/28 21:29:00;;;;;;;;;;;11.40;99.90;;;;;;8394180;28;19920;-65
2021/08/28 21:33:00;;;;;;;;;;;11.40;99.90;;;;;;8449822;22;19924;-67
2021/08/28 21:37:01;;;;;;;;;;;11.60;99.90;;;;;;8393201;28;19913;-67
2021/08/28 21:41:02;;;;;;;;;;;11.70;99.90;;;;;;8394242;28;19912;-68
2021/08/28 21:45:04;;;;;;;;;;;11.50;99.90;;;;;;8392745;28;19919;-67
2021/08/28 21:49:04;;;;;;;;;;;11.60;99.90;;;;;;8364767;28;19912;-67
2021/08/28 21:53:05;;;;;;;;;;;11.70;99.90;;;;;;8360642;28;20381;-67
2021/08/28 21:57:05;;;;;;;;;;;11.50;99.90;;;;;;8342769;28;19923;-67
2021/08/28 22:01:05;;;;;;;;;;;11.40;99.90;;;;;;8360058;28;20280;-68
2021/08/28 22:05:06;;;;;;;;;;;11.50;99.90;;;;;;8359961;28;20392;-68
2021/08/28 22:09:07;;;;;;;;;;;11.40;99.90;;;;;;8341948;28;19952;-67
2021/08/28 22:13:07;;;;;;;;;;;11.60;99.90;;;;;;8360024;28;19932;-67
2021/08/28 22:17:08;;;;;;;;;;;11.50;99.90;;;;;;8359858;28;20402;-68
2021/08/28 22:21:08;;;;;;;;;;;11.60;99.90;;;;;;8359229;28;20292;-68
2021/08/28 22:25:09;;;;;;;;;;;11.60;99.90;;;;;;8359386;28;19912;-68
2021/08/28 22:29:10;;;;;;;;;;;11.70;99.90;;;;;;8359973;28;19933;-68
2021/08/28 22:33:10;;;;;;;;;;;11.70;99.90;;;;;;8358982;28;20292;-68
2021/08/28 22:37:11;;;;;;;;;;;11.70;99.90;;;;;;8341427;28;20259;-67
2021/08/28 22:41:11;;;;;;;;;;;11.70;99.90;;;;;;8341540;28;19913;-67
2021/08/28 22:45:12;;;;;;;;;;;11.60;99.90;;;;;;8341129;28;19912;-68
2021/08/28 22:49:12;;;;;;;;;;;11.60;99.90;;;;;;8360688;28;20319;-68
2021/08/28 22:53:12;;;;;;;;;;;11.40;99.90;;;;;;8359284;28;19916;-68
2021/08/28 22:57:13;;;;;;;;;;;11.30;99.90;;;;;;8358909;28;19908;-68
2021/08/28 23:01:13;;;;;;;;;;;11.40;99.90;;;;;;8359068;28;19908;-68
2021/08/28 23:05:14;;;;;;;;;;;11.40;99.90;;;;;;8358760;28;19909;-68
2021/08/28 23:09:14;;;;;;;;;;;11.50;99.90;;;;;;8358751;28;19913;-68
2021/08/28 23:13:15;;;;;;;;;;;11.50;99.90;;;;;;8358938;28;19918;-67
2021/08/28 23:17:15;;;;;;;;;;;11.50;99.90;;;;;;8340771;28;19909;-68
2021/08/28 23:21:16;;;;;;;;;;;11.40;99.90;;;;;;8358754;28;19913;-68